THY7BK LTFM-LTAC
Flight info
| Callsign | THY7BK |
|---|---|
| Flight time | 0h 48m |
| Altitude | 27000 |
| Route | VICEN T380 ASMAP L333 LATGA |
| Aircraft | A20N/M-SDE2E3FGHIRWXY/LB1 |
Departure
| Time | 2026-05-06 10:22 |
|---|---|
| Airport | İstanbul Airport (LTFM) |
Arrival
| Time | 2026-05-06 11:10 |
|---|---|
| Airport | Esenboğa International Airport (LTAC) |
| Time | Latitude | Longitude | Altitude | Speed | Heading |
|---|---|---|---|---|---|
| 2026-05-06 09:49 | 41.26608 | 28.73493 | 333 ft | 0 kts | 71° |
| 2026-05-06 10:12 | 41.26607 | 28.73489 | 333 ft | 2 kts | 71° |
| 2026-05-06 10:12 | 41.26602 | 28.73471 | 333 ft | 2 kts | 71° |
| 2026-05-06 10:12 | 41.26597 | 28.73452 | 333 ft | 2 kts | 71° |
| 2026-05-06 10:13 | 41.26594 | 28.73439 | 333 ft | 2 kts | 71° |
| 2026-05-06 10:13 | 41.26588 | 28.73414 | 333 ft | 2 kts | 71° |
| 2026-05-06 10:13 | 41.26583 | 28.73396 | 333 ft | 2 kts | 71° |
| 2026-05-06 10:13 | 41.26578 | 28.73377 | 333 ft | 1 kts | 84° |
| 2026-05-06 10:14 | 41.26582 | 28.73358 | 333 ft | 2 kts | 129° |
| 2026-05-06 10:14 | 41.26590 | 28.73349 | 333 ft | 0 kts | 158° |
| 2026-05-06 10:14 | 41.26597 | 28.73346 | 333 ft | 0 kts | 162° |
| 2026-05-06 10:17 | 41.26593 | 28.73348 | 333 ft | 1 kts | 161° |
| 2026-05-06 10:17 | 41.26579 | 28.73354 | 333 ft | 2 kts | 161° |
| 2026-05-06 10:18 | 41.26554 | 28.73366 | 333 ft | 4 kts | 161° |
| 2026-05-06 10:18 | 41.26516 | 28.73384 | 333 ft | 6 kts | 160° |
| 2026-05-06 10:18 | 41.26464 | 28.73409 | 333 ft | 9 kts | 160° |
| 2026-05-06 10:18 | 41.26397 | 28.73438 | 333 ft | 11 kts | 162° |
| 2026-05-06 10:19 | 41.26317 | 28.73474 | 333 ft | 12 kts | 160° |
| 2026-05-06 10:19 | 41.26229 | 28.73480 | 333 ft | 13 kts | 218° |
| 2026-05-06 10:19 | 41.26210 | 28.73354 | 333 ft | 14 kts | 269° |
| 2026-05-06 10:19 | 41.26209 | 28.73212 | 333 ft | 15 kts | 270° |
| 2026-05-06 10:20 | 41.26210 | 28.73065 | 333 ft | 16 kts | 270° |
| 2026-05-06 10:20 | 41.26210 | 28.72914 | 333 ft | 16 kts | 260° |
| 2026-05-06 10:20 | 41.26237 | 28.72788 | 333 ft | 15 kts | 333° |
| 2026-05-06 10:20 | 41.26314 | 28.72775 | 333 ft | 0 kts | 356° |
| 2026-05-06 10:21 | 41.26619 | 28.72776 | 334 ft | 87 kts | 1° |
| 2026-05-06 10:21 | 41.27473 | 28.72746 | 369 ft | 151 kts | 2° |
| 2026-05-06 10:22 | 41.28523 | 28.72753 | 1021 ft | 156 kts | 2° |
| 2026-05-06 10:22 | 41.29608 | 28.72770 | 1779 ft | 160 kts | 0° |
| 2026-05-06 10:22 | 41.30724 | 28.72764 | 2534 ft | 167 kts | 359° |
| 2026-05-06 10:22 | 41.31937 | 28.72751 | 3075 ft | 183 kts | 358° |
| 2026-05-06 10:23 | 41.33278 | 28.72729 | 3541 ft | 205 kts | 358° |
| 2026-05-06 10:23 | 41.34765 | 28.72700 | 4139 ft | 223 kts | 359° |
| 2026-05-06 10:23 | 41.36340 | 28.72402 | 4736 ft | 241 kts | 336° |
| 2026-05-06 10:23 | 41.37648 | 28.70962 | 5466 ft | 257 kts | 305° |
| 2026-05-06 10:24 | 41.38217 | 28.68697 | 6438 ft | 267 kts | 277° |
| 2026-05-06 10:24 | 41.38172 | 28.66235 | 7356 ft | 273 kts | 273° |
| 2026-05-06 10:24 | 41.38124 | 28.63723 | 8195 ft | 279 kts | 274° |
| 2026-05-06 10:24 | 41.38087 | 28.61126 | 9090 ft | 284 kts | 272° |
| 2026-05-06 10:25 | 41.37683 | 28.58540 | 9930 ft | 298 kts | 249° |
| 2026-05-06 10:25 | 41.36402 | 28.56322 | 10672 ft | 314 kts | 221° |
| 2026-05-06 10:25 | 41.34396 | 28.55021 | 11170 ft | 335 kts | 192° |
| 2026-05-06 10:25 | 41.32021 | 28.54888 | 11674 ft | 351 kts | 178° |
| 2026-05-06 10:26 | 41.29541 | 28.55058 | 12088 ft | 369 kts | 176° |
| 2026-05-06 10:26 | 41.26898 | 28.55301 | 12429 ft | 387 kts | 171° |
| 2026-05-06 10:26 | 41.24294 | 28.56434 | 12735 ft | 401 kts | 149° |
| 2026-05-06 10:26 | 41.22095 | 28.58671 | 13234 ft | 406 kts | 133° |
| 2026-05-06 10:27 | 41.20073 | 28.61350 | 13951 ft | 410 kts | 132° |
| 2026-05-06 10:27 | 41.18068 | 28.64011 | 14646 ft | 414 kts | 133° |
| 2026-05-06 10:27 | 41.16001 | 28.66706 | 15330 ft | 418 kts | 133° |
| 2026-05-06 10:27 | 41.13933 | 28.69481 | 15979 ft | 422 kts | 130° |
| 2026-05-06 10:28 | 41.12045 | 28.72432 | 16610 ft | 424 kts | 125° |
| 2026-05-06 10:28 | 41.10330 | 28.75621 | 17227 ft | 427 kts | 121° |
| 2026-05-06 10:28 | 41.08708 | 28.78920 | 17837 ft | 430 kts | 120° |
| 2026-05-06 10:28 | 41.07102 | 28.82229 | 18426 ft | 434 kts | 120° |
| 2026-05-06 10:29 | 41.05463 | 28.85591 | 19007 ft | 438 kts | 120° |
| 2026-05-06 10:29 | 41.03582 | 28.88850 | 19546 ft | 446 kts | 134° |
| 2026-05-06 10:29 | 41.01047 | 28.91128 | 20079 ft | 453 kts | 155° |
| 2026-05-06 10:29 | 40.98008 | 28.92208 | 20628 ft | 457 kts | 175° |
| 2026-05-06 10:30 | 40.94813 | 28.92045 | 21166 ft | 458 kts | 187° |
| 2026-05-06 10:30 | 40.91657 | 28.91556 | 21655 ft | 463 kts | 187° |
| 2026-05-06 10:30 | 40.88402 | 28.91194 | 22131 ft | 467 kts | 184° |
| 2026-05-06 10:30 | 40.85166 | 28.91126 | 22603 ft | 471 kts | 180° |
| 2026-05-06 10:31 | 40.81907 | 28.91318 | 23085 ft | 474 kts | 177° |
| 2026-05-06 10:31 | 40.79700 | 28.91497 | 23499 ft | 473 kts | 177° |
| 2026-05-06 10:31 | 40.75359 | 28.91864 | 24438 ft | 469 kts | 177° |
| 2026-05-06 10:31 | 40.72098 | 28.92139 | 25094 ft | 467 kts | 177° |
| 2026-05-06 10:32 | 40.68879 | 28.92403 | 25669 ft | 466 kts | 178° |
| 2026-05-06 10:32 | 40.65632 | 28.92672 | 26172 ft | 468 kts | 176° |
| 2026-05-06 10:32 | 40.62445 | 28.93541 | 26552 ft | 472 kts | 158° |
| 2026-05-06 10:32 | 40.59640 | 28.95726 | 26953 ft | 471 kts | 139° |
| 2026-05-06 10:33 | 40.57501 | 28.98934 | 27049 ft | 469 kts | 120° |
| 2026-05-06 10:33 | 40.56247 | 29.02816 | 27056 ft | 464 kts | 101° |
| 2026-05-06 10:33 | 40.55954 | 29.06995 | 27064 ft | 458 kts | 83° |
| 2026-05-06 10:33 | 40.56274 | 29.11120 | 27071 ft | 457 kts | 80° |
| 2026-05-06 10:34 | 40.56634 | 29.15250 | 27068 ft | 458 kts | 81° |
| 2026-05-06 10:34 | 40.56978 | 29.19403 | 27065 ft | 458 kts | 81° |
| 2026-05-06 10:34 | 40.57301 | 29.23588 | 27067 ft | 458 kts | 81° |
| 2026-05-06 10:34 | 40.57606 | 29.27734 | 27070 ft | 458 kts | 82° |
| 2026-05-06 10:35 | 40.57903 | 29.31890 | 27066 ft | 458 kts | 82° |
| 2026-05-06 10:35 | 40.58198 | 29.36069 | 27068 ft | 458 kts | 82° |
| 2026-05-06 10:35 | 40.58483 | 29.40187 | 27070 ft | 458 kts | 82° |
| 2026-05-06 10:35 | 40.58787 | 29.44382 | 27067 ft | 458 kts | 81° |
| 2026-05-06 10:36 | 40.59160 | 29.48501 | 27068 ft | 457 kts | 80° |
| 2026-05-06 10:36 | 40.59558 | 29.52613 | 27066 ft | 457 kts | 79° |
| 2026-05-06 10:36 | 40.59962 | 29.56786 | 27065 ft | 457 kts | 79° |
| 2026-05-06 10:36 | 40.60350 | 29.60883 | 27070 ft | 457 kts | 80° |
| 2026-05-06 10:37 | 40.60737 | 29.65045 | 27066 ft | 457 kts | 81° |
| 2026-05-06 10:37 | 40.61115 | 29.69170 | 27069 ft | 457 kts | 81° |
| 2026-05-06 10:37 | 40.61490 | 29.73300 | 27072 ft | 457 kts | 81° |
| 2026-05-06 10:37 | 40.61871 | 29.77498 | 27067 ft | 457 kts | 81° |
| 2026-05-06 10:38 | 40.62245 | 29.81640 | 27069 ft | 457 kts | 81° |
| 2026-05-06 10:38 | 40.62614 | 29.85723 | 27071 ft | 457 kts | 81° |
| 2026-05-06 10:38 | 40.62987 | 29.89884 | 27068 ft | 457 kts | 81° |
| 2026-05-06 10:38 | 40.63357 | 29.94040 | 27071 ft | 457 kts | 81° |
| 2026-05-06 10:39 | 40.63727 | 29.98212 | 27071 ft | 457 kts | 81° |
| 2026-05-06 10:39 | 40.64091 | 30.02313 | 27071 ft | 457 kts | 81° |
| 2026-05-06 10:39 | 40.64460 | 30.06481 | 27074 ft | 457 kts | 81° |
| 2026-05-06 10:39 | 40.64825 | 30.10617 | 27073 ft | 457 kts | 81° |
| 2026-05-06 10:40 | 40.65190 | 30.14761 | 27070 ft | 457 kts | 81° |
| 2026-05-06 10:40 | 40.65553 | 30.18909 | 27067 ft | 457 kts | 81° |
| 2026-05-06 10:40 | 40.65913 | 30.23061 | 27069 ft | 457 kts | 81° |
| 2026-05-06 10:40 | 40.66190 | 30.27204 | 27065 ft | 458 kts | 84° |
| 2026-05-06 10:41 | 40.66244 | 30.31425 | 27070 ft | 460 kts | 88° |
| 2026-05-06 10:41 | 40.66151 | 30.34236 | 27067 ft | 461 kts | 91° |
| 2026-05-06 10:41 | 40.65737 | 30.39825 | 27067 ft | 462 kts | 93° |
| 2026-05-06 10:41 | 40.65386 | 30.44001 | 27066 ft | 462 kts | 94° |
| 2026-05-06 10:42 | 40.65032 | 30.48160 | 27070 ft | 462 kts | 93° |
| 2026-05-06 10:42 | 40.64678 | 30.52367 | 27064 ft | 462 kts | 93° |
| 2026-05-06 10:42 | 40.64325 | 30.56578 | 27060 ft | 462 kts | 93° |
| 2026-05-06 10:42 | 40.63974 | 30.60753 | 27058 ft | 462 kts | 93° |
| 2026-05-06 10:43 | 40.63739 | 30.63543 | 27059 ft | 462 kts | 93° |
| 2026-05-06 10:43 | 40.63183 | 30.69160 | 27052 ft | 463 kts | 97° |
| 2026-05-06 10:43 | 40.62565 | 30.73333 | 27054 ft | 465 kts | 100° |
| 2026-05-06 10:44 | 40.60913 | 30.81523 | 27048 ft | 466 kts | 103° |
| 2026-05-06 10:44 | 40.60043 | 30.85611 | 27048 ft | 466 kts | 103° |
| 2026-05-06 10:44 | 40.59450 | 30.88391 | 27044 ft | 466 kts | 103° |
| 2026-05-06 10:44 | 40.58299 | 30.93797 | 27045 ft | 466 kts | 103° |
| 2026-05-06 10:45 | 40.57422 | 30.97923 | 27047 ft | 466 kts | 103° |
| 2026-05-06 10:45 | 40.56554 | 31.02004 | 27046 ft | 466 kts | 103° |
| 2026-05-06 10:45 | 40.55964 | 31.04776 | 27049 ft | 466 kts | 103° |
| 2026-05-06 10:45 | 40.54802 | 31.10232 | 27042 ft | 466 kts | 103° |
| 2026-05-06 10:46 | 40.54219 | 31.12962 | 27051 ft | 466 kts | 103° |
| 2026-05-06 10:46 | 40.53057 | 31.18381 | 27044 ft | 466 kts | 103° |
| 2026-05-06 10:46 | 40.52167 | 31.22524 | 27047 ft | 466 kts | 103° |
| 2026-05-06 10:46 | 40.51284 | 31.26603 | 27051 ft | 466 kts | 103° |
| 2026-05-06 10:47 | 40.50399 | 31.30680 | 27037 ft | 467 kts | 103° |
| 2026-05-06 10:47 | 40.49507 | 31.34798 | 27037 ft | 467 kts | 103° |
| 2026-05-06 10:47 | 40.48626 | 31.38865 | 27043 ft | 467 kts | 102° |
| 2026-05-06 10:47 | 40.47728 | 31.43000 | 27033 ft | 467 kts | 103° |
| 2026-05-06 10:48 | 40.46839 | 31.47079 | 27035 ft | 466 kts | 102° |
| 2026-05-06 10:48 | 40.45953 | 31.51133 | 27025 ft | 467 kts | 103° |
| 2026-05-06 10:48 | 40.45056 | 31.55223 | 27022 ft | 467 kts | 102° |
| 2026-05-06 10:48 | 40.44161 | 31.59302 | 27023 ft | 467 kts | 102° |
| 2026-05-06 10:49 | 40.43261 | 31.63404 | 27025 ft | 467 kts | 102° |
| 2026-05-06 10:49 | 40.42666 | 31.66114 | 27022 ft | 467 kts | 103° |
| 2026-05-06 10:49 | 40.41770 | 31.70204 | 27018 ft | 467 kts | 103° |
| 2026-05-06 10:49 | 40.40576 | 31.75655 | 27009 ft | 467 kts | 103° |
| 2026-05-06 10:50 | 40.39975 | 31.78389 | 27011 ft | 468 kts | 103° |
| 2026-05-06 10:50 | 40.39074 | 31.82474 | 27012 ft | 468 kts | 103° |
| 2026-05-06 10:50 | 40.37880 | 31.87877 | 27021 ft | 468 kts | 103° |
| 2026-05-06 10:50 | 40.36973 | 31.91962 | 27023 ft | 468 kts | 103° |
| 2026-05-06 10:51 | 40.36068 | 31.96038 | 27010 ft | 468 kts | 103° |
| 2026-05-06 10:51 | 40.35155 | 32.00121 | 27021 ft | 468 kts | 103° |
| 2026-05-06 10:51 | 40.34236 | 32.04208 | 27026 ft | 468 kts | 103° |
| 2026-05-06 10:51 | 40.33628 | 32.06904 | 27025 ft | 468 kts | 103° |
| 2026-05-06 10:52 | 40.32391 | 32.12397 | 27029 ft | 468 kts | 103° |
| 2026-05-06 10:52 | 40.31483 | 32.16447 | 27031 ft | 468 kts | 102° |
| 2026-05-06 10:52 | 40.30940 | 32.20603 | 27021 ft | 460 kts | 88° |
| 2026-05-06 10:52 | 40.31175 | 32.24711 | 26756 ft | 449 kts | 74° |
| 2026-05-06 10:53 | 40.32101 | 32.28514 | 25782 ft | 447 kts | 63° |
| 2026-05-06 10:53 | 40.33396 | 32.32255 | 24398 ft | 452 kts | 61° |
| 2026-05-06 10:53 | 40.34717 | 32.35937 | 22630 ft | 453 kts | 61° |
| 2026-05-06 10:53 | 40.36003 | 32.39622 | 20676 ft | 453 kts | 63° |
| 2026-05-06 10:54 | 40.36848 | 32.43473 | 19378 ft | 442 kts | 82° |
| 2026-05-06 10:54 | 40.36611 | 32.47414 | 18147 ft | 432 kts | 104° |
| 2026-05-06 10:54 | 40.35357 | 32.50864 | 17506 ft | 423 kts | 122° |
| 2026-05-06 10:54 | 40.33615 | 32.53976 | 17174 ft | 413 kts | 125° |
| 2026-05-06 10:55 | 40.31941 | 32.56902 | 16993 ft | 395 kts | 124° |
| 2026-05-06 10:55 | 40.30342 | 32.59739 | 16812 ft | 380 kts | 124° |
| 2026-05-06 10:55 | 40.28809 | 32.62496 | 16642 ft | 366 kts | 124° |
| 2026-05-06 10:55 | 40.27362 | 32.65112 | 16494 ft | 347 kts | 124° |
| 2026-05-06 10:56 | 40.25998 | 32.67593 | 16385 ft | 323 kts | 124° |
| 2026-05-06 10:56 | 40.24736 | 32.69894 | 16291 ft | 301 kts | 124° |
| 2026-05-06 10:56 | 40.23538 | 32.72075 | 16224 ft | 295 kts | 124° |
| 2026-05-06 10:56 | 40.22348 | 32.74237 | 16158 ft | 294 kts | 124° |
| 2026-05-06 10:57 | 40.21161 | 32.76388 | 16113 ft | 292 kts | 124° |
| 2026-05-06 10:57 | 40.19979 | 32.78539 | 16035 ft | 292 kts | 122° |
| 2026-05-06 10:57 | 40.19350 | 32.80103 | 15771 ft | 289 kts | 103° |
| 2026-05-06 10:57 | 40.19475 | 32.83437 | 15361 ft | 274 kts | 64° |
| 2026-05-06 10:58 | 40.20558 | 32.85420 | 15071 ft | 265 kts | 38° |
| 2026-05-06 10:58 | 40.22029 | 32.86805 | 14815 ft | 261 kts | 33° |
| 2026-05-06 10:58 | 40.23513 | 32.88150 | 14537 ft | 259 kts | 33° |
| 2026-05-06 10:58 | 40.24967 | 32.89496 | 14239 ft | 258 kts | 34° |
| 2026-05-06 10:59 | 40.26424 | 32.90867 | 13961 ft | 255 kts | 34° |
| 2026-05-06 10:59 | 40.27385 | 32.91778 | 13783 ft | 253 kts | 34° |
| 2026-05-06 10:59 | 40.29266 | 32.93566 | 13436 ft | 251 kts | 35° |
| 2026-05-06 10:59 | 40.30688 | 32.94920 | 13166 ft | 250 kts | 35° |
| 2026-05-06 11:00 | 40.31613 | 32.95803 | 12988 ft | 250 kts | 35° |
| 2026-05-06 11:00 | 40.33476 | 32.97580 | 12635 ft | 248 kts | 35° |
| 2026-05-06 11:00 | 40.34876 | 32.98917 | 12380 ft | 247 kts | 36° |
| 2026-05-06 11:00 | 40.36266 | 33.00246 | 12109 ft | 247 kts | 36° |
| 2026-05-06 11:01 | 40.37633 | 33.01555 | 11852 ft | 246 kts | 36° |
| 2026-05-06 11:01 | 40.39021 | 33.02884 | 11597 ft | 245 kts | 36° |
| 2026-05-06 11:01 | 40.39928 | 33.03753 | 11427 ft | 245 kts | 37° |
| 2026-05-06 11:01 | 40.41750 | 33.05500 | 11093 ft | 243 kts | 37° |
| 2026-05-06 11:02 | 40.42661 | 33.06373 | 10925 ft | 243 kts | 37° |
| 2026-05-06 11:02 | 40.44027 | 33.07684 | 10678 ft | 242 kts | 37° |
| 2026-05-06 11:02 | 40.45842 | 33.09426 | 10363 ft | 242 kts | 37° |
| 2026-05-06 11:02 | 40.47184 | 33.10732 | 10115 ft | 241 kts | 41° |
| 2026-05-06 11:03 | 40.48184 | 33.12467 | 9837 ft | 237 kts | 72° |
| 2026-05-06 11:03 | 40.48371 | 33.14569 | 9589 ft | 232 kts | 101° |
| 2026-05-06 11:03 | 40.48067 | 33.15901 | 9412 ft | 230 kts | 118° |
| 2026-05-06 11:03 | 40.47071 | 33.17502 | 9152 ft | 229 kts | 145° |
| 2026-05-06 11:04 | 40.45627 | 33.18337 | 8879 ft | 229 kts | 171° |
| 2026-05-06 11:04 | 40.43557 | 33.17967 | 8514 ft | 229 kts | 207° |
| 2026-05-06 11:04 | 40.42234 | 33.16807 | 8248 ft | 231 kts | 214° |
| 2026-05-06 11:04 | 40.41309 | 33.16093 | 8051 ft | 231 kts | 201° |
| 2026-05-06 11:05 | 40.39220 | 33.15783 | 7695 ft | 228 kts | 173° |
| 2026-05-06 11:05 | 40.37665 | 33.16044 | 7443 ft | 228 kts | 171° |
| 2026-05-06 11:05 | 40.36086 | 33.16349 | 7192 ft | 228 kts | 171° |
| 2026-05-06 11:05 | 40.34523 | 33.16665 | 6946 ft | 227 kts | 171° |
| 2026-05-06 11:06 | 40.32961 | 33.16985 | 6700 ft | 227 kts | 171° |
| 2026-05-06 11:06 | 40.31926 | 33.17199 | 6542 ft | 226 kts | 171° |
| 2026-05-06 11:06 | 40.29851 | 33.17479 | 6196 ft | 226 kts | 188° |
| 2026-05-06 11:06 | 40.28410 | 33.16731 | 5942 ft | 223 kts | 215° |
| 2026-05-06 11:07 | 40.27167 | 33.15506 | 5904 ft | 225 kts | 217° |
| 2026-05-06 11:07 | 40.25948 | 33.14289 | 5854 ft | 214 kts | 217° |
| 2026-05-06 11:07 | 40.24775 | 33.13134 | 5752 ft | 206 kts | 216° |
| 2026-05-06 11:07 | 40.24010 | 33.12392 | 5685 ft | 206 kts | 216° |
| 2026-05-06 11:08 | 40.22487 | 33.10922 | 5487 ft | 206 kts | 216° |
| 2026-05-06 11:08 | 40.21336 | 33.09817 | 5493 ft | 205 kts | 216° |
| 2026-05-06 11:08 | 40.20183 | 33.08714 | 5442 ft | 202 kts | 216° |
| 2026-05-06 11:08 | 40.19052 | 33.07622 | 5131 ft | 214 kts | 217° |
| 2026-05-06 11:09 | 40.17790 | 33.06323 | 4810 ft | 232 kts | 219° |
| 2026-05-06 11:09 | 40.16548 | 33.05029 | 4300 ft | 226 kts | 215° |
| 2026-05-06 11:09 | 40.15291 | 33.03991 | 3989 ft | 197 kts | 210° |
| 2026-05-06 11:09 | 40.14226 | 33.03033 | 3698 ft | 182 kts | 220° |
| 2026-05-06 11:10 | 40.13284 | 33.02045 | 3422 ft | 171 kts | 214° |
| 2026-05-06 11:10 | 40.12642 | 33.01485 | 3249 ft | 164 kts | 215° |
| 2026-05-06 11:10 | 40.11576 | 33.00441 | 3159 ft | 99 kts | 218° |
| 2026-05-06 11:10 | 40.11259 | 33.00152 | 3150 ft | 12 kts | 216° |
| 2026-05-06 11:11 | 40.11251 | 33.00145 | 3149 ft | 2 kts | 216° |
| 2026-05-06 11:11 | 40.11214 | 33.00106 | 3147 ft | 10 kts | 220° |
| 2026-05-06 11:11 | 40.11142 | 33.00028 | 3142 ft | 15 kts | 219° |
| 2026-05-06 11:11 | 40.11050 | 32.99932 | 3139 ft | 17 kts | 220° |
| 2026-05-06 11:12 | 40.10979 | 32.99797 | 3138 ft | 18 kts | 250° |
| 2026-05-06 11:12 | 40.10946 | 32.99697 | 3138 ft | 14 kts | 248° |
| 2026-05-06 11:12 | 40.10944 | 32.99691 | 3137 ft | 0 kts | 248° |
| 2026-05-06 11:12 | 40.10939 | 32.99674 | 3137 ft | 3 kts | 249° |
| 2026-05-06 11:13 | 40.10926 | 32.99622 | 3137 ft | 8 kts | 260° |
| 2026-05-06 11:13 | 40.10974 | 32.99570 | 3136 ft | 12 kts | 12° |
| 2026-05-06 11:13 | 40.11026 | 32.99609 | 3137 ft | 12 kts | 35° |
| 2026-05-06 11:13 | 40.11133 | 32.99708 | 3138 ft | 15 kts | 35° |
| 2026-05-06 11:14 | 40.11193 | 32.99766 | 3137 ft | 17 kts | 38° |
| 2026-05-06 11:14 | 40.11327 | 32.99897 | 3139 ft | 18 kts | 36° |
| 2026-05-06 11:14 | 40.11424 | 32.99990 | 3142 ft | 16 kts | 36° |
| 2026-05-06 11:14 | 40.11507 | 33.00069 | 3148 ft | 12 kts | 36° |
| 2026-05-06 11:15 | 40.11572 | 33.00122 | 3152 ft | 10 kts | 13° |
| 2026-05-06 11:15 | 40.11637 | 33.00074 | 3151 ft | 13 kts | 306° |
| 2026-05-06 11:15 | 40.11700 | 32.99954 | 3147 ft | 18 kts | 306° |
| 2026-05-06 11:15 | 40.11779 | 32.99809 | 3146 ft | 20 kts | 305° |
| 2026-05-06 11:16 | 40.11787 | 32.99631 | 3142 ft | 21 kts | 269° |
| 2026-05-06 11:16 | 40.11772 | 32.99565 | 3141 ft | 5 kts | 210° |
| 2026-05-06 11:16 | 40.11731 | 32.99559 | 3141 ft | 6 kts | 179° |
| 2026-05-06 11:16 | 40.11721 | 32.99560 | 3141 ft | 0 kts | 179° |